Time;durP1;ratioP1;P1;durP2;ratioP2;P2;SDS_P1;SDS_P2;PMS_P1;PMS_P2;Temp;Humidity;BMP_temperature;BMP_pressure;BME280_temperature;BME280_humidity;BME280_pressure;Samples;Min_cycle;Max_cycle;Signal;HPM_P1;HPM_P2
2021/03/27 00:02:09;;;;;;;5.90;3.00;;;7.10;91.50;;;;;;5008519;28;20096;-52
2021/03/27 00:04:48;;;;;;;5.20;2.67;;;7.00;91.70;;;;;;5009637;28;20561;-55
2021/03/27 00:07:22;;;;;;;6.93;2.25;;;6.90;92.30;;;;;;5003917;28;20049;-53
2021/03/27 00:10:13;;;;;;;4.55;2.20;;;6.70;91.80;;;;;;5006440;28;20061;-55
2021/03/27 00:12:55;;;;;;;3.92;2.22;;;6.60;92.00;;;;;;5006018;28;20053;-53
2021/03/27 00:15:54;;;;;;;5.20;2.20;;;6.50;92.50;;;;;;5005812;28;20058;-49
2021/03/27 00:18:31;;;;;;;3.75;1.92;;;6.40;92.70;;;;;;5005849;28;20050;-48
2021/03/27 00:21:04;;;;;;;6.53;1.85;;;6.30;92.50;;;;;;5007242;28;20038;-48
2021/03/27 00:23:51;;;;;;;4.13;2.10;;;6.30;92.70;;;;;;5006884;28;20450;-52
2021/03/27 00:26:28;;;;;;;5.82;2.42;;;6.20;92.90;;;;;;5000567;28;20045;-49
2021/03/27 00:29:14;;;;;;;3.88;2.00;;;6.20;93.30;;;;;;5009800;28;20253;-48
2021/03/27 00:31:44;;;;;;;4.85;2.22;;;6.10;93.30;;;;;;4988578;28;20116;-49
2021/03/27 00:34:15;;;;;;;7.15;2.40;;;6.10;93.30;;;;;;5005826;28;20041;-49
2021/03/27 00:36:43;;;;;;;4.55;2.20;;;6.10;93.40;;;;;;5013011;28;20061;-49
2021/03/27 00:39:21;;;;;;;3.83;2.13;;;6.10;93.30;;;;;;5005705;28;20056;-47
2021/03/27 00:42:04;;;;;;;7.82;2.65;;;6.10;93.20;;;;;;5005101;28;20108;-50
2021/03/27 00:44:38;;;;;;;5.40;2.50;;;6.10;93.40;;;;;;5007890;28;20060;-50
2021/03/27 00:47:06;;;;;;;4.18;2.47;;;6.10;93.20;;;;;;5009784;28;20037;-50
2021/03/27 00:49:42;;;;;;;4.07;2.50;;;6.10;93.50;;;;;;5005529;28;20231;-47
2021/03/27 00:52:15;;;;;;;4.20;2.50;;;6.10;93.10;;;;;;5013844;28;20053;-50
2021/03/27 00:54:50;;;;;;;5.47;2.80;;;6.10;93.40;;;;;;5008844;28;20070;-50
2021/03/27 00:57:27;;;;;;;7.43;2.47;;;6.10;93.30;;;;;;5009735;28;20049;-48
2021/03/27 01:00:05;;;;;;;4.85;2.97;;;6.20;93.00;;;;;;5008221;28;20045;-52
2021/03/27 01:02:38;;;;;;;7.85;3.78;;;6.10;93.50;;;;;;5004474;28;20053;-49
2021/03/27 01:05:08;;;;;;;11.38;4.13;;;6.10;93.50;;;;;;5009168;28;20057;-53
2021/03/27 01:07:36;;;;;;;9.15;4.60;;;6.10;93.50;;;;;;5009056;28;20049;-49
2021/03/27 01:10:23;;;;;;;7.78;4.75;;;6.20;93.10;;;;;;5009074;28;20119;-49
2021/03/27 01:12:56;;;;;;;7.38;4.47;;;6.20;93.30;;;;;;5009561;28;20109;-49
2021/03/27 01:15:33;;;;;;;6.78;4.75;;;6.20;93.20;;;;;;5008181;28;20074;-51
2021/03/27 01:18:04;;;;;;;8.38;5.65;;;6.20;93.30;;;;;;5009099;28;20050;-49
2021/03/27 01:20:35;;;;;;;9.18;5.75;;;6.20;93.50;;;;;;5015330;28;20073;-48
2021/03/27 01:23:04;;;;;;;7.30;5.50;;;6.20;93.50;;;;;;5008313;28;20524;-50
2021/03/27 01:25:36;;;;;;;14.27;6.75;;;6.20;93.60;;;;;;4991222;28;20049;-48
2021/03/27 01:28:10;;;;;;;8.35;5.85;;;6.30;93.40;;;;;;5009661;28;20061;-48
2021/03/27 01:31:01;;;;;;;8.65;6.45;;;6.30;93.30;;;;;;5008383;28;20053;-49
2021/03/27 01:33:36;;;;;;;8.90;6.15;;;6.30;93.40;;;;;;4991032;28;20046;-48
2021/03/27 01:36:15;;;;;;;9.45;6.85;;;6.30;93.40;;;;;;5011588;28;20514;-54
2021/03/27 01:38:50;;;;;;;11.52;6.25;;;6.30;93.40;;;;;;5009086;28;20037;-48
2021/03/27 01:41:31;;;;;;;11.05;7.55;;;6.30;93.20;;;;;;5008827;28;20053;-47
2021/03/27 01:44:15;;;;;;;9.70;6.53;;;6.30;93.10;;;;;;4991732;28;20173;-49
2021/03/27 01:46:43;;;;;;;11.65;7.20;;;6.30;93.20;;;;;;5008706;28;20042;-49
2021/03/27 01:49:31;;;;;;;8.63;6.32;;;6.30;93.00;;;;;;5008773;28;20062;-49
2021/03/27 01:52:01;;;;;;;9.70;6.35;;;6.30;93.20;;;;;;5008231;28;20046;-48
2021/03/27 01:54:59;;;;;;;9.52;6.32;;;6.20;93.30;;;;;;5007398;28;20121;-47
2021/03/27 01:57:52;;;;;;;8.60;6.00;;;6.20;93.70;;;;;;5009859;28;20085;-50
2021/03/27 02:00:41;;;;;;;12.68;6.78;;;6.20;93.50;;;;;;5008044;28;20518;-49
2021/03/27 02:03:22;;;;;;;11.48;6.47;;;6.10;93.70;;;;;;4987800;28;20062;-48
2021/03/27 02:06:05;;;;;;;8.65;6.55;;;6.10;93.80;;;;;;4997567;28;20045;-51
2021/03/27 02:08:47;;;;;;;7.53;5.32;;;6.10;93.70;;;;;;5000065;28;20060;-49
2021/03/27 02:11:44;;;;;;;10.82;6.38;;;6.10;93.70;;;;;;5008341;28;20050;-47
2021/03/27 02:14:18;;;;;;;9.55;5.80;;;6.10;93.60;;;;;;4947235;28;20140;-49
2021/03/27 02:17:01;;;;;;;9.57;5.43;;;6.10;93.70;;;;;;4943117;28;20059;-48
2021/03/27 02:20:01;;;;;;;7.10;4.47;;;6.10;93.60;;;;;;4946395;29;20055;-53
2021/03/27 02:22:41;;;;;;;7.90;4.90;;;6.10;93.20;;;;;;4942859;29;20485;-49
2021/03/27 02:25:23;;;;;;;8.80;5.32;;;6.00;93.20;;;;;;4946507;29;20051;-52
2021/03/27 02:28:11;;;;;;;9.65;5.80;;;6.10;93.30;;;;;;4948623;28;20078;-50
2021/03/27 02:30:50;;;;;;;9.73;6.18;;;6.00;93.40;;;;;;4951863;28;20645;-47
2021/03/27 02:33:37;;;;;;;8.75;6.22;;;6.10;93.20;;;;;;4948762;28;20162;-51
2021/03/27 02:36:19;;;;;;;10.27;5.90;;;6.00;93.40;;;;;;4946686;29;20051;-51
2021/03/27 02:38:54;;;;;;;7.90;5.50;;;6.00;93.10;;;;;;4945537;28;20500;-50
2021/03/27 02:41:43;;;;;;;8.05;6.10;;;6.00;93.40;;;;;;4946644;28;20208;-49
2021/03/27 02:44:38;;;;;;;10.43;7.13;;;6.00;92.90;;;;;;4942927;28;20071;-48
2021/03/27 02:47:33;;;;;;;9.65;7.32;;;6.00;93.00;;;;;;4941485;29;20051;-48
2021/03/27 02:50:05;;;;;;;11.77;8.13;;;6.00;92.90;;;;;;4948381;28;20055;-52
2021/03/27 02:52:38;;;;;;;12.40;8.20;;;6.00;93.00;;;;;;5011435;28;20050;-51
2021/03/27 02:55:25;;;;;;;9.77;8.43;;;6.10;92.90;;;;;;5006608;28;20064;-48
2021/03/27 02:58:33;;;;;;;14.73;9.30;;;6.10;93.00;;;;;;5006723;28;20641;-48
2021/03/27 03:01:05;;;;;;;14.18;10.07;;;6.10;93.10;;;;;;5013182;28;20120;-50
2021/03/27 03:03:34;;;;;;;;;;;6.10;93.00;;;;;;5002039;28;20050;-47
2021/03/27 03:06:13;;;;;;;12.05;8.70;;;6.10;93.20;;;;;;4981378;28;19925;-50
2021/03/27 03:08:55;;;;;;;13.85;9.57;;;6.00;92.80;;;;;;4988670;28;20057;-51
2021/03/27 03:11:31;;;;;;;12.32;8.50;;;6.10;92.90;;;;;;5005739;28;20399;-50
2021/03/27 03:14:18;;;;;;;12.80;8.40;;;6.10;92.80;;;;;;5010690;28;20076;-49
2021/03/27 03:16:57;;;;;;;12.77;8.60;;;6.10;92.80;;;;;;5005386;28;20049;-48
2021/03/27 03:19:44;;;;;;;13.45;8.73;;;6.00;92.70;;;;;;5011271;28;20050;-49
2021/03/27 03:22:26;;;;;;;12.13;7.57;;;6.00;92.90;;;;;;5005812;28;20121;-50
2021/03/27 03:25:03;;;;;;;12.18;7.57;;;6.10;92.80;;;;;;4980645;28;20050;-48
2021/03/27 03:27:38;;;;;;;12.38;8.38;;;6.10;92.70;;;;;;5004955;28;20053;-50
2021/03/27 03:30:29;;;;;;;16.02;7.68;;;6.10;92.60;;;;;;4994299;28;20056;-49
2021/03/27 03:33:14;;;;;;;12.52;7.47;;;6.10;92.70;;;;;;5005969;28;20046;-51
2021/03/27 03:35:53;;;;;;;13.95;8.18;;;6.00;92.40;;;;;;5006486;28;20052;-47
2021/03/27 03:38:52;;;;;;;12.05;8.35;;;6.10;92.40;;;;;;5004685;28;20765;-49
2021/03/27 03:41:30;;;;;;;12.32;7.93;;;6.10;92.50;;;;;;5006061;28;20092;-48
2021/03/27 03:44:20;;;;;;;13.73;8.20;;;6.10;92.00;;;;;;5006050;28;20058;-49
2021/03/27 03:47:22;;;;;;;12.40;7.53;;;6.10;92.10;;;;;;5005297;28;20038;-49
2021/03/27 03:50:15;;;;;;;11.98;7.80;;;6.00;92.30;;;;;;4992349;28;20049;-52
2021/03/27 03:53:18;;;;;;;11.88;7.20;;;6.00;92.20;;;;;;5009033;28;20042;-50
2021/03/27 03:56:09;;;;;;;10.73;7.20;;;5.90;91.90;;;;;;5002968;28;20061;-49
2021/03/27 03:58:51;;;;;;;11.80;6.70;;;5.80;92.10;;;;;;5005519;28;20054;-50
2021/03/27 04:01:28;;;;;;;10.38;6.43;;;5.80;92.10;;;;;;5006219;28;20060;-49
2021/03/27 04:03:58;;;;;;;12.65;7.00;;;5.70;92.00;;;;;;5005833;28;20045;-49
2021/03/27 04:06:31;;;;;;;10.25;5.93;;;5.70;91.80;;;;;;4988420;28;20048;-51
2021/03/27 04:09:09;;;;;;;12.50;6.68;;;5.70;91.80;;;;;;5005629;28;20046;-49
2021/03/27 04:11:38;;;;;;;13.35;6.20;;;5.60;91.80;;;;;;4987037;28;20734;-49
2021/03/27 04:14:26;;;;;;;12.25;6.28;;;5.60;91.60;;;;;;5004311;28;20050;-50
2021/03/27 04:17:13;;;;;;;10.55;5.85;;;5.50;91.80;;;;;;5004819;28;20069;-49
2021/03/27 04:19:50;;;;;;;12.60;5.55;;;5.50;91.70;;;;;;4984804;28;20087;-48
2021/03/27 04:22:22;;;;;;;11.07;4.93;;;5.50;91.70;;;;;;4976213;28;20068;-51
2021/03/27 04:25:19;;;;;;;14.52;5.82;;;5.40;91.70;;;;;;4990144;28;20107;-50
2021/03/27 04:27:59;;;;;;;10.85;5.70;;;5.40;91.80;;;;;;5005420;28;20054;-50
2021/03/27 04:30:47;;;;;;;20.45;5.57;;;5.30;91.70;;;;;;5004361;28;20061;-50
2021/03/27 04:33:36;;;;;;;10.43;4.63;;;5.30;91.90;;;;;;5005755;28;20140;-48
2021/03/27 04:36:14;;;;;;;9.45;4.38;;;5.30;91.40;;;;;;5007421;28;20038;-48
2021/03/27 04:38:50;;;;;;;11.55;4.30;;;5.30;91.60;;;;;;5006017;28;20056;-49
2021/03/27 04:41:31;;;;;;;11.95;4.53;;;5.40;91.40;;;;;;5005501;28;20081;-48
2021/03/27 04:44:22;;;;;;;11.00;4.60;;;5.40;91.40;;;;;;4998435;28;20077;-48
2021/03/27 04:46:56;;;;;;;11.48;4.93;;;5.50;91.30;;;;;;5005401;28;20050;-49
2021/03/27 04:49:41;;;;;;;9.95;5.28;;;5.60;91.30;;;;;;5005234;28;20410;-48
2021/03/27 04:52:16;;;;;;;11.77;4.95;;;5.60;91.00;;;;;;4993655;28;20125;-50
2021/03/27 04:54:53;;;;;;;13.27;5.43;;;5.50;91.30;;;;;;5003782;28;20042;-50
2021/03/27 04:57:38;;;;;;;16.88;5.28;;;5.50;91.60;;;;;;4965466;28;20047;-50
2021/03/27 05:00:06;;;;;;;10.60;5.65;;;5.50;91.90;;;;;;4966025;28;20050;-50
2021/03/27 05:02:43;;;;;;;17.65;6.28;;;5.50;92.00;;;;;;4966266;28;20046;-50
2021/03/27 05:05:38;;;;;;;13.85;6.32;;;5.50;92.10;;;;;;4963349;28;20058;-47
2021/03/27 05:08:55;;;;;;;12.70;6.53;;;5.50;92.00;;;;;;4955827;28;20046;-52
2021/03/27 05:11:51;;;;;;;11.90;7.15;;;5.50;91.70;;;;;;4927444;29;20235;-49
2021/03/27 05:14:43;;;;;;;10.73;6.72;;;5.50;91.60;;;;;;4928154;29;20060;-48
2021/03/27 05:17:35;;;;;;;15.98;8.40;;;5.40;91.80;;;;;;4924442;29;20429;-48
2021/03/27 05:20:33;;;;;;;14.48;7.50;;;5.40;92.30;;;;;;4924512;29;20602;-49
2021/03/27 05:23:21;;;;;;;14.73;8.75;;;5.40;92.30;;;;;;4913047;29;20055;-50
2021/03/27 05:26:27;;;;;;;15.05;7.60;;;5.40;92.30;;;;;;4921161;29;21134;-47
2021/03/27 05:29:15;;;;;;;12.20;8.15;;;5.40;92.10;;;;;;4866461;29;20049;-49
2021/03/27 05:32:07;;;;;;;16.90;9.35;;;5.40;92.20;;;;;;4870501;29;20167;-51
2021/03/27 05:34:38;;;;;;;;;;;5.40;92.30;;;;;;4816371;29;20054;-51
2021/03/27 05:37:41;;;;;;;16.65;9.07;;;5.50;92.30;;;;;;4815798;29;19928;-47
2021/03/27 05:40:25;;;;;;;20.67;9.68;;;5.50;92.30;;;;;;4814911;29;20170;-47
2021/03/27 05:43:08;;;;;;;18.95;10.13;;;5.50;92.40;;;;;;4815276;29;20126;-51
2021/03/27 05:45:41;;;;;;;14.15;9.80;;;5.50;92.30;;;;;;4820549;29;20042;-50
2021/03/27 05:48:15;;;;;;;;;;;5.50;92.30;;;;;;4850252;29;20053;-49
2021/03/27 05:50:47;;;;;;;13.35;7.15;;;5.50;92.40;;;;;;4853484;29;19935;-49
2021/03/27 05:53:37;;;;;;;12.53;6.50;;;5.40;92.30;;;;;;4853110;29;20049;-51
2021/03/27 05:56:24;;;;;;;10.93;7.72;;;5.40;92.30;;;;;;4862120;29;20059;-43
2021/03/27 05:59:02;;;;;;;13.68;7.18;;;5.60;92.40;;;;;;4867785;29;20088;-46
2021/03/27 06:01:50;;;;;;;13.27;7.35;;;5.70;92.30;;;;;;4869122;29;20048;-46
2021/03/27 06:04:47;;;;;;;11.63;7.45;;;5.70;92.00;;;;;;4944823;29;20449;-46
2021/03/27 06:07:37;;;;;;;11.02;7.22;;;5.70;92.10;;;;;;4943787;28;20540;-47
2021/03/27 06:10:34;;;;;;;16.20;7.78;;;5.70;92.40;;;;;;4944600;29;20122;-47
2021/03/27 06:13:23;;;;;;;12.25;6.72;;;5.60;92.70;;;;;;4985701;28;20054;-48
2021/03/27 06:16:08;;;;;;;10.98;6.80;;;5.50;92.70;;;;;;4991195;28;20050;-48
2021/03/27 06:18:39;;;;;;;17.80;6.53;;;5.50;92.50;;;;;;4986545;28;20097;-46
2021/03/27 06:21:28;;;;;;;14.10;6.50;;;5.50;92.50;;;;;;4987720;28;20046;-46
2021/03/27 06:24:33;;;;;;;13.10;5.97;;;5.50;92.60;;;;;;4986419;28;20057;-44
2021/03/27 06:27:26;;;;;;;16.05;6.85;;;5.50;92.50;;;;;;5000902;28;20279;-46
2021/03/27 06:30:22;;;;;;;13.43;7.10;;;5.60;92.50;;;;;;4993486;28;20065;-45
2021/03/27 06:33:42;;;;;;;15.00;7.40;;;5.70;92.50;;;;;;4985787;28;20046;-47
2021/03/27 06:36:08;;;;;;;13.20;6.78;;;5.70;92.20;;;;;;4944546;28;20047;-48
2021/03/27 06:39:03;;;;;;;11.73;6.75;;;5.80;92.20;;;;;;4941370;28;20062;-45
2021/03/27 06:41:56;;;;;;;18.95;8.00;;;5.90;92.10;;;;;;4942632;28;20136;-46
2021/03/27 06:44:58;;;;;;;27.63;14.98;;;6.00;91.40;;;;;;4941832;28;20075;-46
2021/03/27 06:47:58;;;;;;;18.17;8.90;;;6.20;91.20;;;;;;4944804;29;20055;-49
2021/03/27 06:50:51;;;;;;;22.80;6.47;;;6.40;90.50;;;;;;4946011;28;20051;-45
2021/03/27 06:53:51;;;;;;;14.63;4.72;;;6.50;90.00;;;;;;4942477;29;20043;-47
2021/03/27 06:56:44;;;;;;;14.88;4.78;;;6.50;89.30;;;;;;4942946;29;20054;-47
2021/03/27 06:59:22;;;;;;;15.57;4.22;;;6.50;89.30;;;;;;4943746;29;20082;-46
2021/03/27 07:02:00;;;;;;;11.20;3.47;;;6.50;88.10;;;;;;4944633;29;20150;-48
2021/03/27 07:04:28;;;;;;;13.18;4.07;;;6.50;87.70;;;;;;4943781;29;20208;-47
2021/03/27 07:07:05;;;;;;;58.70;33.00;;;6.50;87.30;;;;;;4944931;29;20070;-45
2021/03/27 07:09:53;;;;;;;15.82;5.55;;;6.50;87.60;;;;;;4956983;28;20388;-48
2021/03/27 07:12:31;;;;;;;14.13;4.28;;;6.50;87.20;;;;;;4984764;28;20051;-50
2021/03/27 07:15:33;;;;;;;15.80;4.90;;;6.50;86.50;;;;;;4984519;28;20141;-46
2021/03/27 07:17:59;;;;;;;;;;;6.50;85.40;;;;;;4985671;28;20081;-44
2021/03/27 07:20:52;;;;;;;13.05;4.25;;;6.50;84.90;;;;;;4984113;28;19953;-44
2021/03/27 07:23:57;;;;;;;12.85;4.38;;;6.60;84.90;;;;;;4984111;28;20053;-46
2021/03/27 07:26:43;;;;;;;15.23;4.22;;;6.80;83.80;;;;;;4988844;28;20042;-52
2021/03/27 07:29:38;;;;;;;24.45;9.07;;;6.90;83.70;;;;;;4983992;28;20078;-50
2021/03/27 07:32:33;;;;;;;16.55;4.13;;;7.20;83.10;;;;;;4983060;28;20158;-49
2021/03/27 07:35:24;;;;;;;18.42;6.32;;;7.90;81.30;;;;;;5004888;28;20049;-48
2021/03/27 07:38:05;;;;;;;13.75;3.65;;;8.30;77.50;;;;;;5003046;28;20049;-49
2021/03/27 07:40:40;;;;;;;15.63;4.45;;;8.40;77.80;;;;;;5000804;28;20531;-49
2021/03/27 07:43:30;;;;;;;16.80;4.03;;;8.20;75.30;;;;;;5002827;28;20057;-49
2021/03/27 07:46:21;;;;;;;21.33;4.65;;;7.70;74.60;;;;;;5005095;28;20053;-51
2021/03/27 07:49:21;;;;;;;14.05;4.25;;;7.60;74.40;;;;;;5005541;28;20528;-48
2021/03/27 07:51:57;;;;;;;14.82;3.90;;;7.50;75.70;;;;;;5003186;28;20049;-51
2021/03/27 07:55:00;;;;;;;13.13;2.80;;;7.30;75.70;;;;;;5004173;28;20042;-47
2021/03/27 07:57:55;;;;;;;16.60;3.55;;;7.10;75.10;;;;;;5005231;28;20100;-48
2021/03/27 08:00:49;;;;;;;18.95;3.85;;;7.10;74.80;;;;;;5007716;28;20064;-51
2021/03/27 08:03:33;;;;;;;17.77;3.55;;;7.00;76.30;;;;;;5007070;28;20486;-47
2021/03/27 08:06:06;;;;;;;21.08;4.72;;;7.00;76.10;;;;;;5006765;28;20050;-52
2021/03/27 08:08:50;;;;;;;17.95;3.55;;;7.10;74.60;;;;;;5004378;28;20104;-51
2021/03/27 08:11:34;;;;;;;18.55;4.32;;;7.20;74.40;;;;;;5008768;28;20049;-50
2021/03/27 08:14:12;;;;;;;17.67;4.95;;;7.40;72.90;;;;;;5009373;28;20045;-48
2021/03/27 08:16:47;;;;;;;21.50;6.88;;;7.60;72.50;;;;;;5001952;28;20124;-46
2021/03/27 08:19:31;;;;;;;20.98;7.80;;;7.70;72.40;;;;;;5007112;28;20061;-48
2021/03/27 08:22:18;;;;;;;13.90;3.35;;;7.70;71.70;;;;;;5001311;28;20073;-52
2021/03/27 08:25:05;;;;;;;15.65;3.60;;;7.70;70.20;;;;;;5004457;28;20108;-47
2021/03/27 08:27:59;;;;;;;16.33;4.43;;;7.90;69.30;;;;;;5008210;28;20066;-48
2021/03/27 08:30:35;;;;;;;13.73;3.70;;;8.30;68.60;;;;;;5006472;28;20237;-49
2021/03/27 08:33:10;;;;;;;18.38;3.83;;;8.30;66.10;;;;;;5005079;28;20076;-53
2021/03/27 08:36:16;;;;;;;14.48;3.67;;;8.80;64.80;;;;;;5011055;28;20053;-52
2021/03/27 08:39:05;;;;;;;13.88;3.50;;;9.80;64.00;;;;;;5012309;28;20034;-48
2021/03/27 08:41:57;;;;;;;14.52;3.38;;;9.50;60.80;;;;;;5006754;28;20042;-50
2021/03/27 08:44:42;;;;;;;13.27;3.55;;;9.80;60.20;;;;;;5004546;28;20054;-50
2021/03/27 08:47:19;;;;;;;19.23;4.35;;;9.70;61.10;;;;;;5005745;28;20177;-50
2021/03/27 08:50:03;;;;;;;14.18;3.30;;;9.70;60.50;;;;;;5005897;28;20049;-49
2021/03/27 08:52:53;;;;;;;12.43;4.28;;;9.60;59.50;;;;;;4997912;28;20056;-50
2021/03/27 08:55:28;;;;;;;12.27;3.40;;;9.80;59.50;;;;;;5009577;28;20461;-46
2021/03/27 08:58:48;;;;;;;20.95;10.95;;;10.10;56.90;;;;;;5023977;28;20045;-46
2021/03/27 09:01:38;;;;;;;18.05;4.97;;;10.20;57.80;;;;;;4943786;29;20051;-52
2021/03/27 09:04:19;;;;;;;11.27;3.78;;;9.70;58.20;;;;;;4943512;28;20047;-48
2021/03/27 09:07:06;;;;;;;14.80;4.00;;;9.50;59.70;;;;;;4949080;28;20768;-48
2021/03/27 09:09:40;;;;;;;16.75;3.30;;;8.90;60.10;;;;;;4946238;29;20086;-48
2021/03/27 09:12:06;;;;;;;13.48;2.97;;;8.30;61.00;;;;;;4946099;28;20492;-47
2021/03/27 09:14:45;;;;;;;13.55;2.95;;;8.00;63.20;;;;;;4946307;28;20213;-51
2021/03/27 09:17:20;;;;;;;13.90;2.97;;;8.10;63.60;;;;;;4946410;28;20058;-47
2021/03/27 09:20:21;;;;;;;10.10;2.60;;;8.30;62.90;;;;;;4947091;29;20055;-63
2021/03/27 09:23:00;;;;;;;12.48;2.50;;;8.70;62.00;;;;;;4942545;28;20444;-50
2021/03/27 09:25:34;;;;;;;10.30;2.47;;;9.10;59.70;;;;;;4947492;29;20055;-59
2021/03/27 09:28:43;;;;;;;14.95;3.33;;;9.50;60.40;;;;;;4947291;29;20538;-59
2021/03/27 09:32:03;;;;;;;13.88;3.13;;;10.20;61.90;;;;;;4944449;29;20051;-46
2021/03/27 09:34:50;;;;;;;12.80;3.05;;;10.30;57.00;;;;;;4893551;29;20063;-60
2021/03/27 09:38:01;;;;;;;4.38;0.90;;;9.90;58.70;;;;;;4926533;29;20048;-52
2021/03/27 09:40:35;;;;;;;6.68;2.22;;;8.70;56.00;;;;;;4928506;29;20047;-55
2021/03/27 09:43:28;;;;;;;10.15;2.35;;;8.00;61.90;;;;;;4926546;29;20052;-56
2021/03/27 09:46:14;;;;;;;88.60;60.78;;;7.50;62.60;;;;;;4937176;29;20056;-52
2021/03/27 09:49:29;;;;;;;12.68;2.78;;;7.50;65.20;;;;;;4931883;29;20086;-54
2021/03/27 09:52:27;;;;;;;9.48;4.03;;;7.30;67.90;;;;;;4873151;29;20071;-54
2021/03/27 09:55:34;;;;;;;9.70;2.42;;;7.30;68.10;;;;;;4891400;29;20100;-42
2021/03/27 09:58:22;;;;;;;8.73;1.90;;;7.20;69.00;;;;;;4888921;29;20048;-44
2021/03/27 10:00:50;;;;;;;10.00;2.70;;;7.30;68.90;;;;;;4895190;29;20056;-42
2021/03/27 10:03:28;;;;;;;11.35;2.55;;;7.20;68.50;;;;;;4886268;29;20056;-46
2021/03/27 10:06:10;;;;;;;10.75;2.40;;;7.40;69.10;;;;;;4890202;29;20059;-43
2021/03/27 10:08:46;;;;;;;15.23;3.30;;;7.80;68.00;;;;;;4910023;29;20937;-42
2021/03/27 10:11:16;;;;;;;13.15;3.20;;;8.50;66.70;;;;;;4927712;29;20134;-43
2021/03/27 10:14:02;;;;;;;7.43;2.10;;;8.50;67.50;;;;;;4930664;28;20052;-44
2021/03/27 10:16:54;;;;;;;12.63;4.43;;;7.70;66.70;;;;;;4926776;29;20172;-49
2021/03/27 10:19:25;;;;;;;11.70;2.50;;;7.60;69.20;;;;;;4909159;29;20151;-53
2021/03/27 10:22:12;;;;;;;11.35;2.95;;;8.20;67.40;;;;;;4923530;29;20052;-48
2021/03/27 10:25:17;;;;;;;6.85;2.30;;;9.30;63.60;;;;;;4924458;29;20261;-48
2021/03/27 10:28:06;;;;;;;18.67;11.35;;;9.00;61.90;;;;;;4927436;29;20557;-50
2021/03/27 10:30:57;;;;;;;13.77;5.18;;;8.60;62.60;;;;;;5024615;28;20421;-52
2021/03/27 10:33:39;;;;;;;13.85;3.60;;;8.40;64.10;;;;;;5021729;28;20072;-48
2021/03/27 10:36:27;;;;;;;13.82;4.38;;;8.20;65.70;;;;;;5020385;28;20052;-47
2021/03/27 10:39:32;;;;;;;10.40;2.53;;;8.50;66.70;;;;;;4965903;28;20086;-47
2021/03/27 10:42:07;;;;;;;10.80;2.67;;;9.60;64.10;;;;;;4961937;28;20057;-47
2021/03/27 10:45:11;;;;;;;8.55;3.10;;;9.90;63.80;;;;;;4964386;28;20059;-50
2021/03/27 10:48:00;;;;;;;13.50;3.33;;;9.30;63.40;;;;;;4961883;28;20055;-50
2021/03/27 10:50:59;;;;;;;12.77;3.65;;;8.90;66.00;;;;;;4963330;28;20133;-49
2021/03/27 10:53:37;;;;;;;7.93;2.80;;;8.70;67.00;;;;;;4965719;28;20051;-48
2021/03/27 10:56:18;;;;;;;8.88;3.00;;;9.20;63.80;;;;;;4961245;28;20739;-48
2021/03/27 10:59:11;;;;;;;15.38;5.55;;;10.00;61.10;;;;;;4964591;28;20053;-50
2021/03/27 11:02:08;;;;;;;11.48;3.95;;;10.90;58.90;;;;;;4907218;29;20067;-51
2021/03/27 11:05:08;;;;;;;9.13;2.17;;;11.60;54.60;;;;;;4906574;29;20104;-55
2021/03/27 11:08:05;;;;;;;14.85;5.70;;;11.90;52.40;;;;;;4907353;29;20159;-49
2021/03/27 11:10:52;;;;;;;14.23;2.95;;;12.90;53.40;;;;;;4906931;29;20055;-52
2021/03/27 11:13:43;;;;;;;12.55;3.88;;;12.50;53.30;;;;;;4907555;29;20183;-54
2021/03/27 11:16:21;;;;;;;8.20;2.77;;;12.70;52.00;;;;;;4907167;29;20207;-48
2021/03/27 11:19:19;;;;;;;9.20;2.50;;;12.80;51.50;;;;;;4905890;29;20312;-46
2021/03/27 11:22:06;;;;;;;10.57;2.53;;;12.80;50.40;;;;;;4904302;29;20044;-50
2021/03/27 11:25:08;;;;;;;12.52;2.70;;;12.80;50.80;;;;;;4918652;29;20079;-53
2021/03/27 11:27:37;;;;;;;10.20;2.63;;;12.70;49.20;;;;;;4926830;29;20048;-51
2021/03/27 11:30:33;;;;;;;9.77;2.40;;;13.50;50.40;;;;;;4926196;29;20047;-51
2021/03/27 11:33:25;;;;;;;9.38;2.95;;;14.00;49.40;;;;;;4924204;29;20043;-51
2021/03/27 11:36:24;;;;;;;10.73;2.70;;;13.10;50.90;;;;;;4926219;29;20155;-57
2021/03/27 11:38:58;;;;;;;11.57;2.60;;;11.00;54.80;;;;;;4981484;28;20053;-50
2021/03/27 11:41:37;;;;;;;10.02;2.45;;;10.90;56.90;;;;;;5026147;28;20065;-57
2021/03/27 11:44:40;;;;;;;12.55;3.85;;;11.80;56.00;;;;;;5023904;28;20098;-50
2021/03/27 11:47:30;;;;;;;31.25;17.90;;;11.80;50.20;;;;;;5020870;28;20046;-51
2021/03/27 11:50:14;;;;;;;6.63;2.05;;;11.90;54.70;;;;;;5023909;28;20049;-50
2021/03/27 11:53:03;;;;;;;8.88;1.77;;;10.10;56.80;;;;;;5024339;28;20052;-52
2021/03/27 11:55:36;;;;;;;5.38;1.40;;;8.60;62.60;;;;;;5021595;28;20080;-52
2021/03/27 11:58:27;;;;;;;6.03;1.73;;;8.20;64.70;;;;;;5027667;28;20563;-50
2021/03/27 12:01:06;;;;;;;5.10;1.60;;;8.00;64.90;;;;;;5025297;28;20431;-53
2021/03/27 12:04:12;;;;;;;8.63;2.00;;;8.00;65.90;;;;;;5022815;28;20072;-56
2021/03/27 12:06:50;;;;;;;9.88;2.33;;;8.10;67.80;;;;;;5015655;28;20072;-51
2021/03/27 12:09:48;;;;;;;11.13;2.42;;;7.80;71.10;;;;;;5018240;28;20054;-53
2021/03/27 12:12:35;;;;;;;10.25;2.55;;;7.20;75.20;;;;;;5022904;28;21397;-53
2021/03/27 12:15:39;;;;;;;10.65;2.28;;;6.50;78.80;;;;;;5025298;28;20141;-49
2021/03/27 12:18:42;;;;;;;7.50;2.05;;;6.10;81.50;;;;;;5026339;28;20057;-52
2021/03/27 12:21:28;;;;;;;7.95;1.63;;;6.20;82.20;;;;;;5025696;28;20128;-48
2021/03/27 12:24:04;;;;;;;5.40;1.60;;;6.50;84.20;;;;;;5030192;28;20041;-52
2021/03/27 12:26:45;;;;;;;5.60;1.33;;;6.90;81.40;;;;;;5021608;28;20405;-52
2021/03/27 12:29:19;;;;;;;6.57;1.27;;;7.40;80.60;;;;;;5027350;28;20046;-49
2021/03/27 12:31:49;;;;;;;7.38;1.30;;;7.40;77.70;;;;;;5022139;28;20054;-49
2021/03/27 12:34:39;;;;;;;4.78;1.15;;;7.80;78.90;;;;;;5023331;28;20053;-50
2021/03/27 12:37:17;;;;;;;6.95;1.60;;;8.30;75.20;;;;;;5023842;28;20056;-49
2021/03/27 12:40:06;;;;;;;7.85;1.95;;;8.70;75.40;;;;;;5012484;28;20053;-51
2021/03/27 12:42:35;;;;;;;6.55;1.83;;;9.30;72.70;;;;;;5031074;28;20045;-49
2021/03/27 12:45:11;;;;;;;10.32;2.30;;;10.60;71.00;;;;;;5032791;28;20049;-53
2021/03/27 12:47:37;;;;;;;8.38;1.83;;;11.30;66.90;;;;;;5030864;28;20069;-53
2021/03/27 12:50:27;;;;;;;7.55;2.00;;;12.00;65.10;;;;;;5032860;28;20136;-49
2021/03/27 12:53:12;;;;;;;8.00;1.85;;;12.50;63.40;;;;;;5028913;28;20053;-51
2021/03/27 12:56:09;;;;;;;7.53;2.40;;;13.60;62.10;;;;;;5031051;28;20514;-47
2021/03/27 12:59:00;;;;;;;13.43;2.58;;;12.80;61.00;;;;;;5032015;28;20113;-50
2021/03/27 13:01:45;;;;;;;11.00;2.60;;;11.60;64.10;;;;;;5032482;28;20041;-52
2021/03/27 13:04:22;;;;;;;9.02;2.22;;;10.90;66.00;;;;;;5033081;28;20477;-50
2021/03/27 13:07:03;;;;;;;9.95;3.28;;;11.30;66.60;;;;;;5032657;28;20044;-50
2021/03/27 13:09:50;;;;;;;7.10;2.60;;;12.40;64.30;;;;;;5037101;28;20253;-49
2021/03/27 13:12:22;;;;;;;8.45;3.30;;;13.00;62.40;;;;;;5022688;28;20458;-48
2021/03/27 13:14:56;;;;;;;13.38;3.55;;;13.30;57.50;;;;;;5011495;28;20064;-54
2021/03/27 13:17:43;;;;;;;12.32;3.33;;;13.30;59.10;;;;;;5030699;28;20619;-58
2021/03/27 13:20:57;;;;;;;10.57;2.85;;;13.10;59.50;;;;;;5030727;28;20049;-55
2021/03/27 13:23:32;;;;;;;18.98;5.93;;;12.30;60.10;;;;;;4949677;28;20058;-56
2021/03/27 13:26:04;;;;;;;10.10;3.03;;;11.50;64.00;;;;;;4945133;28;20444;-52
2021/03/27 13:28:34;;;;;;;;;;;11.10;61.00;;;;;;4945915;29;20059;-50
2021/03/27 13:31:20;;;;;;;13.13;2.80;;;11.80;60.20;;;;;;4935699;28;19930;-54
2021/03/27 13:34:04;;;;;;;12.10;2.42;;;12.30;57.60;;;;;;4951671;28;20081;-53
2021/03/27 13:36:36;;;;;;;15.30;4.43;;;12.90;54.00;;;;;;4941804;28;20059;-51
2021/03/27 13:39:34;;;;;;;9.63;2.97;;;13.10;51.90;;;;;;4947766;28;20043;-51
2021/03/27 13:42:05;;;;;;;13.95;2.58;;;12.60;51.30;;;;;;4950943;28;20150;-49
2021/03/27 13:45:05;;;;;;;13.65;2.70;;;11.80;53.50;;;;;;4951094;28;20073;-47
2021/03/27 13:48:08;;;;;;;11.88;2.88;;;11.00;57.70;;;;;;4890513;29;20532;-49
2021/03/27 13:50:41;;;;;;;12.07;3.08;;;10.60;60.80;;;;;;4817018;29;20069;-51
2021/03/27 13:53:22;;;;;;;6.60;1.92;;;11.10;60.30;;;;;;4815644;29;20149;-47
2021/03/27 13:56:10;;;;;;;7.25;2.33;;;12.00;56.20;;;;;;4820447;29;20064;-50
2021/03/27 13:58:57;;;;;;;7.20;1.92;;;12.30;53.80;;;;;;4815727;29;20145;-50
2021/03/27 14:02:02;;;;;;;11.25;2.80;;;13.20;51.60;;;;;;4833533;29;20081;-50
2021/03/27 14:04:42;;;;;;;6.22;2.03;;;13.00;51.00;;;;;;4834602;29;20087;-50
2021/03/27 14:07:30;;;;;;;11.30;3.03;;;12.20;54.20;;;;;;4832436;29;20054;-46
2021/03/27 14:10:10;;;;;;;10.85;2.70;;;10.60;57.80;;;;;;4835125;29;20053;-46
2021/03/27 14:12:47;;;;;;;12.38;3.35;;;9.90;63.60;;;;;;4832163;29;20534;-48
2021/03/27 14:15:40;;;;;;;10.20;2.53;;;10.80;67.70;;;;;;4833586;29;20103;-47
2021/03/27 14:18:30;;;;;;;13.27;2.95;;;11.80;63.30;;;;;;4832809;29;20089;-48
2021/03/27 14:21:32;;;;;;;12.57;3.38;;;12.30;59.10;;;;;;4837340;29;20077;-50
2021/03/27 14:24:06;;;;;;;9.77;3.22;;;12.50;57.50;;;;;;4848234;29;20111;-50